| time (UTC) | temp F | wind direction | speed knots | gust knots | rain 1hr in | rain 24hr in | rain mn in | humidity % | barometer mb |
| 20260510120400 | 58 | 144 | 0.0 | 0.0 | 0.00 | 0.00 | 0.00 | 84 | 1013.5 |
| 20260510111814 | 57 | 149 | 0.0 | 0.0 | 0.00 | 0.00 | 0.00 | 83 | 1013.3 |
| 20260510110858 | 58 | 149 | 0.0 | 0.0 | 0.00 | 0.00 | 0.00 | 82 | 1013.2 |
| 20260510110311 | 58 | 149 | 0.0 | 0.0 | 0.00 | 0.00 | 0.00 | 82 | 1013.1 |
| 20260510105404 | 58 | 150 | 0.0 | 0.0 | 0.00 | 0.00 | 0.00 | 82 | 1012.9 |
| 20260510102908 | 58 | 149 | 0.0 | 0.0 | 0.00 | 0.00 | 0.00 | 82 | 1012.9 |
| 20260510101341 | 58 | 149 | 0.0 | 0.0 | 0.00 | 0.00 | 0.00 | 82 | 1012.7 |
| 20260510100834 | 58 | 150 | 0.0 | 0.0 | 0.00 | 0.00 | 0.00 | 82 | 1012.8 |
| 20260510100337 | 58 | 150 | 0.0 | 0.0 | 0.00 | 0.00 | 0.00 | 82 | 1012.7 |
| 20260510095843 | 58 | 149 | 0.0 | 0.0 | 0.00 | 0.00 | 0.00 | 82 | 1012.4 |
| 20260510095341 | 58 | 149 | 0.0 | 0.0 | 0.00 | 0.00 | 0.00 | 82 | 1012.4 |
| 20260510094828 | 58 | 150 | 0.0 | 0.0 | 0.00 | 0.00 | 0.00 | 82 | 1012.2 |
| 20260510094320 | 58 | 150 | 0.0 | 0.0 | 0.00 | 0.00 | 0.00 | 82 | 1012.0 |
| 20260510093404 | 58 | 150 | 0.0 | 0.0 | 0.00 | 0.00 | 0.00 | 82 | 1011.8 |
| 20260510092323 | 57 | 149 | 0.0 | 0.0 | 0.00 | 0.00 | 0.00 | 82 | 1011.8 |
| 20260510091819 | 57 | 149 | 0.0 | 0.9 | 0.00 | 0.00 | 0.00 | 82 | 1011.9 |
| 20260510090401 | 57 | 159 | 2.6 | 2.6 | 0.00 | 0.00 | 0.00 | 82 | 1011.8 |
| 20260510085332 | 57 | 224 | 0.0 | 0.9 | 0.00 | 0.00 | 0.00 | 82 | 1012.2 |
| 20260510084814 | 57 | 224 | 0.0 | 0.9 | 0.00 | 0.00 | 0.00 | 82 | 1012.3 |
| 20260510084312 | 57 | 223 | 0.9 | 0.9 | 0.00 | 0.00 | 0.00 | 82 | 1012.1 |
| 20260510082907 | 57 | 224 | 0.0 | 0.9 | 0.00 | 0.00 | 0.00 | 82 | 1011.8 |
| 20260510081858 | 57 | 223 | 0.0 | 0.9 | 0.00 | 0.00 | 0.00 | 82 | 1011.5 |
| 20260510081352 | 57 | 224 | 0.0 | 0.0 | 0.00 | 0.00 | 0.00 | 82 | 1011.4 |
| 20260510080843 | 57 | 224 | 0.0 | 0.0 | 0.00 | 0.00 | 0.00 | 81 | 1011.4 |
| 20260510080348 | 57 | 223 | 0.0 | 0.0 | 0.00 | 0.00 | 0.00 | 81 | 1011.3 |
| 20260510075852 | 57 | 223 | 0.0 | 0.0 | 0.00 | 0.00 | 0.00 | 81 | 1011.3 |
| 20260510075355 | 57 | 224 | 0.0 | 0.0 | 0.00 | 0.00 | 0.00 | 81 | 1011.4 |
| 20260510074854 | 57 | 224 | 0.0 | 0.0 | 0.00 | 0.00 | 0.00 | 81 | 1011.3 |
| 20260510074348 | 57 | 224 | 0.0 | 0.0 | 0.00 | 0.00 | 0.00 | 81 | 1011.3 |
| 20260510073841 | 57 | 224 | 0.0 | 0.0 | 0.00 | 0.00 | 0.00 | 81 | 1011.3 |
| 20260510071358 | 57 | 224 | 0.0 | 0.0 | 0.00 | 0.00 | 0.00 | 80 | 1011.1 |
| 20260510070900 | 58 | 224 | 0.0 | 0.0 | 0.00 | 0.00 | 0.00 | 80 | 1011.1 |
| 20260510070353 | 58 | 224 | 0.0 | 0.0 | 0.00 | 0.00 | 0.00 | 80 | 1011.1 |
| 20260510065820 | 58 | 224 | 0.0 | 0.0 | 0.00 | 0.00 | 0.00 | 79 | 1011.2 |
| 20260510065315 | 58 | 224 | 0.0 | 0.9 | 0.00 | 0.00 | 0.00 | 80 | 1011.2 |
| 20260510064328 | 58 | 223 | 0.0 | 0.0 | 0.00 | 0.00 | 0.00 | 79 | 1011.3 |
| 20260510063319 | 58 | 223 | 0.0 | 0.0 | 0.00 | 0.00 | 0.00 | 79 | 1011.4 |
| 20260510062814 | 58 | 224 | 0.0 | 0.0 | 0.00 | 0.00 | 0.00 | 79 | 1011.5 |
| 20260510061825 | 58 | 224 | 0.0 | 0.9 | 0.00 | 0.00 | 0.00 | 79 | 1011.5 |
| 20260510061320 | 59 | 224 | 0.0 | 0.9 | 0.00 | 0.00 | 0.00 | 79 | 1011.5 |
| 20260510060815 | 59 | 223 | 0.0 | 0.0 | 0.00 | 0.00 | 0.00 | 79 | 1011.5 |
| 20260510060311 | 59 | 224 | 0.0 | 0.9 | 0.00 | 0.00 | 0.00 | 79 | 1011.5 |
| 20260510055826 | 59 | 224 | 0.0 | 0.9 | 0.00 | 0.00 | 0.00 | 78 | 1011.6 |
| 20260510055320 | 59 | 224 | 0.0 | 0.9 | 0.00 | 0.00 | 0.00 | 78 | 1011.6 |
| 20260510054817 | 59 | 224 | 0.9 | 1.7 | 0.00 | 0.00 | 0.00 | 78 | 1011.5 |
| 20260510053831 | 59 | 224 | 0.9 | 1.7 | 0.00 | 0.00 | 0.00 | 76 | 1011.5 |
| 20260510053325 | 60 | 223 | 0.0 | 0.9 | 0.00 | 0.00 | 0.00 | 76 | 1011.4 |
| 20260510052819 | 60 | 224 | 0.0 | 0.9 | 0.00 | 0.00 | 0.00 | 75 | 1011.4 |
| 20260510051813 | 60 | 224 | 0.0 | 0.9 | 0.00 | 0.00 | 0.00 | 75 | 1011.4 |
| 20260510051311 | 60 | 223 | 0.0 | 0.9 | 0.00 | 0.00 | 0.00 | 75 | 1011.3 |
| 20260510050827 | 61 | 224 | 0.0 | 0.0 | 0.00 | 0.00 | 0.00 | 74 | 1011.3 |
| 20260510050325 | 61 | 223 | 0.0 | 0.0 | 0.00 | 0.00 | 0.00 | 74 | 1011.2 |
| 20260510045842 | 61 | 223 | 0.0 | 0.0 | 0.00 | 0.00 | 0.00 | 74 | 1011.1 |
| 20260510045328 | 61 | 224 | 0.0 | 0.0 | 0.00 | 0.00 | 0.00 | 73 | 1011.1 |
| 20260510044830 | 61 | 223 | 0.0 | 0.9 | 0.00 | 0.00 | 0.00 | 73 | 1011.2 |
| 20260510044316 | 62 | 224 | 0.0 | 0.9 | 0.00 | 0.00 | 0.00 | 73 | 1011.1 |
| 20260510043813 | 62 | 224 | 0.0 | 0.0 | 0.00 | 0.00 | 0.00 | 72 | 1011.0 |
| 20260510042908 | 62 | 224 | 0.0 | 0.9 | 0.00 | 0.00 | 0.00 | 72 | 1011.2 |
| 20260510042400 | 63 | 224 | 0.0 | 0.9 | 0.00 | 0.00 | 0.00 | 71 | 1011.2 |
| 20260510041856 | 63 | 224 | 0.0 | 0.9 | 0.00 | 0.00 | 0.00 | 71 | 1011.1 |
| 20260510035408 | 64 | 223 | 0.0 | 0.9 | 0.00 | 0.00 | 0.00 | 69 | 1010.7 |
| 20260510033405 | 65 | 223 | 0.0 | 0.0 | 0.00 | 0.00 | 0.00 | 67 | 1010.5 |
| 20260510032848 | 65 | 224 | 0.0 | 0.0 | 0.00 | 0.00 | 0.00 | 67 | 1010.4 |
| 20260510032331 | 65 | 224 | 0.0 | 0.0 | 0.00 | 0.00 | 0.00 | 67 | 1010.4 |
| 20260510031822 | 65 | 224 | 0.0 | 0.0 | 0.00 | 0.00 | 0.00 | 66 | 1010.3 |
| 20260510031325 | 65 | 224 | 0.0 | 0.0 | 0.00 | 0.00 | 0.00 | 65 | 1010.4 |
| 20260510030822 | 65 | 223 | 0.0 | 0.9 | 0.00 | 0.00 | 0.00 | 65 | 1010.3 |
| 20260510024333 | 67 | 224 | 0.0 | 0.0 | 0.00 | 0.00 | 0.00 | 62 | 1009.9 |
| 20260510023828 | 68 | 223 | 0.0 | 0.9 | 0.00 | 0.00 | 0.00 | 61 | 1009.8 |
| 20260510023315 | 68 | 224 | 0.0 | 0.9 | 0.00 | 0.00 | 0.00 | 61 | 1009.7 |
| 20260510021859 | 70 | 223 | 0.0 | 0.9 | 0.00 | 0.00 | 0.00 | 57 | 1009.2 |
| 20260510013408 | 75 | 224 | 0.0 | 0.0 | 0.00 | 0.00 | 0.00 | 48 | 1008.5 |
| 20260510012838 | 76 | 223 | 0.0 | 0.0 | 0.00 | 0.00 | 0.00 | 47 | 1008.4 |
| 20260510012325 | 77 | 223 | 0.0 | 0.0 | 0.00 | 0.00 | 0.00 | 47 | 1008.3 |
| 20260510011817 | 77 | 223 | 0.0 | 0.0 | 0.00 | 0.00 | 0.00 | 45 | 1008.3 |
| 20260510005859 | 81 | 223 | 0.0 | 0.0 | 0.00 | 0.00 | 0.00 | 42 | 1008.0 |
| 20260510005355 | 81 | 224 | 0.0 | 0.0 | 0.00 | 0.00 | 0.00 | 41 | 1008.0 |
| 20260510004849 | 82 | 224 | 0.0 | 0.0 | 0.00 | 0.00 | 0.00 | 39 | 1008.1 |
| 20260510004327 | 82 | 224 | 0.0 | 0.9 | 0.00 | 0.00 | 0.00 | 37 | 1008.0 |
| 20260510003817 | 83 | 223 | 0.0 | 1.7 | 0.00 | 0.00 | 0.00 | 37 | 1008.0 |
| 20260510003320 | 83 | 224 | 0.0 | 1.7 | 0.00 | 0.00 | 0.00 | 35 | 1008.0 |
| 20260510002816 | 84 | 224 | 0.9 | 1.7 | 0.00 | 0.00 | 0.00 | 34 | 1007.9 |
| 20260510001410 | 85 | 225 | 0.9 | 0.9 | 0.00 | 0.00 | 0.00 | 36 | 1007.8 |
| 20260509235902 | 86 | 232 | 0.0 | 0.0 | 0.00 | 0.00 | 0.00 | 32 | 1007.6 |
| 20260509235345 | 86 | 232 | 0.0 | 0.9 | 0.00 | 0.00 | 0.00 | 31 | 1007.7 |
| 20260509234858 | 86 | 232 | 0.9 | 2.6 | 0.00 | 0.00 | 0.00 | 33 | 1007.9 |
| 20260509234351 | 86 | 232 | 0.0 | 2.6 | 0.00 | 0.00 | 0.00 | 30 | 1008.0 |
| 20260509233849 | 86 | 224 | 0.0 | 0.9 | 0.00 | 0.00 | 0.00 | 31 | 1007.9 |
| 20260509232839 | 86 | 223 | 0.9 | 2.6 | 0.00 | 0.00 | 0.00 | 30 | 1007.9 |
| 20260509232324 | 86 | 223 | 0.9 | 2.6 | 0.00 | 0.00 | 0.00 | 30 | 1008.0 |
| 20260509231816 | 86 | 209 | 0.0 | 1.7 | 0.00 | 0.00 | 0.00 | 30 | 1008.0 |
| 20260509230321 | 87 | 152 | 1.7 | 4.3 | 0.00 | 0.00 | 0.00 | 28 | 1007.9 |
| 20260509225832 | 87 | 146 | 0.9 | 4.3 | 0.00 | 0.00 | 0.00 | 27 | 1007.9 |
| 20260509225318 | 87 | 225 | 1.7 | 3.5 | 0.00 | 0.00 | 0.00 | 26 | 1007.9 |
| 20260509224314 | 88 | 208 | 1.7 | 2.6 | 0.00 | 0.00 | 0.00 | 29 | 1007.8 |
| 20260509223407 | 87 | 227 | 0.9 | 3.5 | 0.00 | 0.00 | 0.00 | 27 | 1007.7 |
| 20260509222903 | 88 | 215 | 1.7 | 4.3 | 0.00 | 0.00 | 0.00 | 29 | 1007.7 |
| 20260509222405 | 88 | 142 | 1.7 | 4.3 | 0.00 | 0.00 | 0.00 | 28 | 1007.8 |
| 20260509221855 | 88 | 185 | 2.6 | 4.3 | 0.00 | 0.00 | 0.00 | 28 | 1007.7 |
| 20260509221340 | 88 | 183 | 2.6 | 4.3 | 0.00 | 0.00 | 0.00 | 28 | 1007.7 |
| 20260509220842 | 88 | 227 | 1.7 | 3.5 | 0.00 | 0.00 | 0.00 | 28 | 1007.8 |
| 20260509220342 | 88 | 219 | 1.7 | 4.3 | 0.00 | 0.00 | 0.00 | 29 | 1007.8 |
| 20260509215836 | 88 | 227 | 0.9 | 5.2 | 0.00 | 0.00 | 0.00 | 32 | 1007.8 |
| 20260509215322 | 88 | 219 | 2.6 | 5.2 | 0.00 | 0.00 | 0.00 | 30 | 1007.8 |
| 20260509214815 | 88 | 261 | 1.7 | 3.5 | 0.00 | 0.00 | 0.00 | 29 | 1007.8 |
| 20260509214317 | 88 | 139 | 1.7 | 4.3 | 0.00 | 0.00 | 0.00 | 29 | 1007.8 |
| 20260509212850 | 88 | 167 | 7.0 | 10.4 | 0.00 | 0.00 | 0.00 | 29 | 1007.8 |
| 20260509211853 | 88 | 188 | 1.7 | 4.3 | 0.00 | 0.00 | 0.00 | 30 | 1007.8 |
| 20260509211351 | 88 | 193 | 0.9 | 5.2 | 0.00 | 0.00 | 0.00 | 30 | 1007.9 |
| 20260509210847 | 87 | 176 | 2.6 | 5.2 | 0.00 | 0.00 | 0.00 | 32 | 1007.9 |
| 20260509210332 | 87 | 148 | 0.9 | 4.3 | 0.00 | 0.00 | 0.00 | 30 | 1007.9 |
| 20260509205820 | 87 | 186 | 0.9 | 2.6 | 0.00 | 0.00 | 0.00 | 31 | 1007.9 |
| 20260509204357 | 89 | 169 | 4.3 | 11.3 | 0.00 | 0.00 | 0.00 | 30 | 1008.0 |
| 20260509203851 | 89 | 177 | 3.5 | 4.3 | 0.00 | 0.00 | 0.00 | 29 | 1008.1 |
| 20260509202352 | 89 | 263 | 1.7 | 5.2 | 0.00 | 0.00 | 0.00 | 29 | 1008.2 |
| 20260509201840 | 90 | 144 | 2.6 | 5.2 | 0.00 | 0.00 | 0.00 | 28 | 1008.2 |
| 20260509195830 | 89 | 179 | 1.7 | 4.3 | 0.00 | 0.00 | 0.00 | 30 | 1008.5 |
| 20260509195338 | 89 | 158 | 1.7 | 4.3 | 0.00 | 0.00 | 0.00 | 27 | 1008.6 |
| 20260509194819 | 89 | 267 | 2.6 | 4.3 | 0.00 | 0.00 | 0.00 | 28 | 1008.6 |
| 20260509194329 | 89 | 226 | 1.7 | 4.3 | 0.00 | 0.00 | 0.00 | 28 | 1008.6 |
| 20260509193400 | 89 | 244 | 2.6 | 5.2 | 0.00 | 0.00 | 0.00 | 28 | 1008.7 |
| 20260509192849 | 88 | 153 | 4.3 | 5.2 | 0.00 | 0.00 | 0.00 | 27 | 1008.8 |
| 20260509192345 | 88 | 226 | 1.7 | 4.3 | 0.00 | 0.00 | 0.00 | 26 | 1008.9 |
| 20260509191841 | 88 | 265 | 1.7 | 5.2 | 0.00 | 0.00 | 0.00 | 30 | 1008.8 |
| 20260509190358 | 87 | 184 | 5.2 | 11.3 | 0.00 | 0.00 | 0.00 | 30 | 1008.9 |
| 20260509185901 | 87 | 173 | 3.5 | 11.3 | 0.00 | 0.00 | 0.00 | 29 | 1008.9 |
| 20260509184902 | 88 | 147 | 4.3 | 8.7 | 0.00 | 0.00 | 0.00 | 27 | 1008.9 |
| 20260509184406 | 88 | 202 | 1.7 | 7.8 | 0.00 | 0.00 | 0.00 | 29 | 1008.9 |
| 20260509182359 | 88 | 215 | 2.6 | 3.5 | 0.00 | 0.00 | 0.00 | 23 | 1009.0 |
| 20260509180838 | 87 | 157 | 1.7 | 4.3 | 0.00 | 0.00 | 0.00 | 25 | 1009.0 |
| 20260509180335 | 87 | 223 | 0.9 | 5.2 | 0.00 | 0.00 | 0.00 | 31 | 1008.9 |
| 20260509175826 | 87 | 249 | 1.7 | 5.2 | 0.00 | 0.00 | 0.00 | 33 | 1009.0 |
| 20260509175314 | 87 | 279 | 1.7 | 5.2 | 0.00 | 0.00 | 0.00 | 30 | 1009.0 |
| 20260509172311 | 84 | 257 | 2.6 | 4.3 | 0.00 | 0.00 | 0.00 | 33 | 1009.3 |
| 20260509171401 | 85 | 224 | 0.9 | 3.5 | 0.00 | 0.00 | 0.00 | 36 | 1009.4 |
| 20260509170857 | 84 | 169 | 0.9 | 3.5 | 0.00 | 0.00 | 0.00 | 37 | 1009.4 |
| 20260509170351 | 85 | 253 | 0.9 | 2.6 | 0.00 | 0.00 | 0.00 | 39 | 1009.4 |
| 20260509165838 | 84 | 136 | 0.0 | 3.5 | 0.00 | 0.00 | 0.00 | 39 | 1009.4 |
| 20260509162409 | 80 | 231 | 2.6 | 4.3 | 0.00 | 0.00 | 0.00 | 49 | 1009.7 |
| 20260509161407 | 79 | 152 | 1.7 | 4.3 | 0.00 | 0.00 | 0.00 | 52 | 1009.6 |
| 20260509160320 | 78 | 237 | 2.6 | 3.5 | 0.00 | 0.00 | 0.00 | 53 | 1009.7 |
| 20260509155821 | 78 | 223 | 1.7 | 3.5 | 0.00 | 0.00 | 0.00 | 55 | 1009.7 |
| 20260509155317 | 77 | 190 | 2.6 | 4.3 | 0.00 | 0.00 | 0.00 | 55 | 1009.8 |
| 20260509152900 | 76 | 234 | 1.7 | 3.5 | 0.00 | 0.00 | 0.00 | 57 | 1009.6 |
| 20260509152351 | 75 | 197 | 0.0 | 2.6 | 0.00 | 0.00 | 0.00 | 59 | 1009.7 |
| 20260509145904 | 72 | 238 | 0.9 | 4.3 | 0.00 | 0.00 | 0.00 | 63 | 1009.7 |
| 20260509145407 | 71 | 246 | 2.6 | 3.5 | 0.00 | 0.00 | 0.00 | 63 | 1009.8 |
| 20260509144857 | 72 | 249 | 0.9 | 2.6 | 0.00 | 0.00 | 0.00 | 63 | 1009.8 |
| 20260509144403 | 72 | 231 | 1.7 | 2.6 | 0.00 | 0.00 | 0.00 | 63 | 1009.9 |
| 20260509143409 | 71 | 159 | 0.9 | 3.5 | 0.00 | 0.00 | 0.00 | 66 | 1009.9 |
| 20260509142326 | 69 | 254 | 0.9 | 2.6 | 0.00 | 0.00 | 0.00 | 68 | 1009.9 |
| 20260509141817 | 68 | 258 | 1.7 | 2.6 | 0.00 | 0.00 | 0.00 | 69 | 1009.9 |
| 20260509141410 | 68 | 264 | 1.7 | 2.6 | 0.00 | 0.00 | 0.00 | 68 | 1009.8 |
| 20260509140903 | 68 | 275 | 0.9 | 3.5 | 0.00 | 0.00 | 0.00 | 70 | 1009.8 |
| 20260509134404 | 65 | 170 | 1.7 | 2.6 | 0.00 | 0.00 | 0.00 | 75 | 1009.8 |
| 20260509133902 | 64 | 205 | 0.9 | 3.5 | 0.00 | 0.00 | 0.00 | 77 | 1009.8 |
| 20260509132855 | 62 | 184 | 0.9 | 3.5 | 0.00 | 0.00 | 0.00 | 81 | 1009.8 |
| 20260509132341 | 61 | 162 | 1.7 | 3.5 | 0.00 | 0.00 | 0.00 | 83 | 1009.9 |
| 20260509131830 | 60 | 153 | 2.6 | 2.6 | 0.00 | 0.00 | 0.00 | 85 | 1009.8 |
| 20260509131313 | 59 | 253 | 0.9 | 1.7 | 0.00 | 0.00 | 0.00 | 87 | 1009.8 |
| 20260509130405 | 58 | 259 | 1.7 | 1.7 | 0.00 | 0.00 | 0.00 | 88 | 1009.8 |
| 20260509125852 | 57 | 271 | 0.9 | 1.7 | 0.00 | 0.00 | 0.00 | 89 | 1009.8 |
| 20260509125327 | 56 | 273 | 0.0 | 0.9 | 0.00 | 0.00 | 0.00 | 89 | 1009.7 |
| 20260509124815 | 56 | 273 | 0.0 | 0.9 | 0.00 | 0.00 | 0.00 | 88 | 1009.6 |
| 20260509123351 | 54 | 273 | 0.0 | 0.9 | 0.00 | 0.00 | 0.00 | 88 | 1009.7 |
| 20260509121358 | 52 | 273 | 0.0 | 0.9 | 0.00 | 0.00 | 0.00 | 86 | 1009.6 |
| 20260509120855 | 52 | 273 | 0.0 | 0.9 | 0.00 | 0.00 | 0.00 | 87 | 1009.6 |